createdAt,value
2019-01-18T00:00:34.242Z,4.70
2019-01-18T00:03:02.689Z,4.60
2019-01-18T00:05:31.324Z,4.40
2019-01-18T00:07:59.848Z,4.30
2019-01-18T00:10:28.393Z,4.20
2019-01-18T00:12:57.027Z,4.00
2019-01-18T00:15:25.665Z,3.90
2019-01-18T00:17:54.339Z,3.80
2019-01-18T00:20:22.918Z,3.70
2019-01-18T00:22:51.469Z,3.60
2019-01-18T00:25:19.938Z,3.50
2019-01-18T00:27:48.511Z,3.40
2019-01-18T00:30:19.693Z,3.30
2019-01-18T00:32:48.179Z,3.20
2019-01-18T00:35:16.712Z,3.10
2019-01-18T00:37:45.296Z,3.00
2019-01-18T00:40:21.207Z,2.90
2019-01-18T00:42:50.013Z,2.90
2019-01-18T00:45:20.838Z,2.80
2019-01-18T00:47:49.534Z,2.70
2019-01-18T00:50:19.903Z,2.70
2019-01-18T00:52:48.406Z,2.70
2019-01-18T00:55:17.010Z,2.60
2019-01-18T00:57:45.641Z,2.60
2019-01-18T01:00:17.242Z,2.60
2019-01-18T01:02:45.919Z,2.50
2019-01-18T01:05:14.508Z,2.50
2019-01-18T01:07:43.014Z,2.50
2019-01-18T01:10:11.901Z,2.40
2019-01-18T01:12:40.734Z,2.40
2019-01-18T01:15:15.954Z,2.30
2019-01-18T01:17:44.667Z,2.30
2019-01-18T01:20:15.321Z,2.20
2019-01-18T01:22:43.758Z,2.20
2019-01-18T01:25:12.419Z,2.10
2019-01-18T01:27:41.046Z,2.00
2019-01-18T01:30:18.822Z,1.90
2019-01-18T01:32:47.378Z,1.80
2019-01-18T01:35:15.862Z,1.70
2019-01-18T01:37:44.382Z,1.60
2019-01-18T01:40:15.525Z,1.60
2019-01-18T01:42:44.038Z,1.50
2019-01-18T01:45:12.596Z,1.40
2019-01-18T01:47:41.182Z,1.30
2019-01-18T01:50:20.608Z,1.20
2019-01-18T01:52:49.184Z,1.20
2019-01-18T01:55:17.747Z,1.10
2019-01-18T01:57:46.298Z,1.10
2019-01-18T02:00:25.822Z,1.00
2019-01-18T02:02:54.566Z,1.10
2019-01-18T02:05:23.096Z,1.10
2019-01-18T02:07:51.637Z,1.10
2019-01-18T02:10:20.301Z,1.10
2019-01-18T02:12:49.065Z,1.10
2019-01-18T02:15:19.589Z,1.10
2019-01-18T02:17:48.147Z,1.00
2019-01-18T02:20:18.540Z,0.90
2019-01-18T02:22:47.077Z,0.80
2019-01-18T02:25:15.635Z,0.70
2019-01-18T02:27:45.211Z,0.60
2019-01-18T02:30:17.193Z,0.60
2019-01-18T02:32:45.882Z,0.60
2019-01-18T02:35:14.496Z,0.60
2019-01-18T02:37:43.052Z,0.60
2019-01-18T02:40:12.797Z,0.70
2019-01-18T02:42:41.395Z,0.70
2019-01-18T02:45:15.356Z,0.70
2019-01-18T02:47:44.071Z,0.80
2019-01-18T02:50:12.729Z,0.80
2019-01-18T02:52:41.286Z,0.90
2019-01-18T02:55:11.859Z,0.90
2019-01-18T02:57:40.320Z,1.10
2019-01-18T03:00:12.271Z,1.00
2019-01-18T03:02:40.748Z,1.00
2019-01-18T03:05:11.670Z,1.00
2019-01-18T03:07:40.358Z,1.10
2019-01-18T03:10:15.025Z,1.30
2019-01-18T03:12:43.670Z,1.50
2019-01-18T03:15:12.122Z,1.70
2019-01-18T03:17:40.961Z,1.90
2019-01-18T03:20:11.825Z,2.00
2019-01-18T03:22:40.351Z,2.00
2019-01-18T03:25:11.939Z,2.10
2019-01-18T03:27:40.573Z,2.00
2019-01-18T03:30:18.930Z,2.00
2019-01-18T03:32:42.380Z,1.90
2019-01-18T03:35:12.804Z,1.70
2019-01-18T03:37:41.442Z,1.50
2019-01-18T03:40:12.374Z,1.30
2019-01-18T03:42:40.914Z,1.10
2019-01-18T03:45:12.274Z,0.90
2019-01-18T03:47:40.896Z,0.80
2019-01-18T03:50:14.570Z,0.60
2019-01-18T03:52:43.196Z,0.50
2019-01-18T03:55:11.913Z,0.40
2019-01-18T03:57:40.507Z,0.30
2019-01-18T04:00:14.499Z,0.20
2019-01-18T04:02:43.317Z,0.10
2019-01-18T04:05:12.304Z,0.10
2019-01-18T04:07:40.943Z,0.00
2019-01-18T04:10:12.305Z,0.00
2019-01-18T04:12:40.782Z,0.00
2019-01-18T04:15:11.949Z,0.00
2019-01-18T04:17:40.572Z,0.00
2019-01-18T04:20:11.881Z,0.00
2019-01-18T04:22:40.545Z,0.00
2019-01-18T04:25:12.128Z,0.10
2019-01-18T04:27:40.639Z,0.20
2019-01-18T04:30:14.831Z,0.00
2019-01-18T04:32:43.561Z,0.10
2019-01-18T04:35:13.014Z,0.10
2019-01-18T04:37:41.556Z,0.00
2019-01-18T04:40:13.611Z,0.00
2019-01-18T04:42:42.168Z,0.10
2019-01-18T04:45:10.711Z,0.10
2019-01-18T04:47:39.215Z,0.00
2019-01-18T04:50:11.181Z,-0.10
2019-01-18T04:52:39.723Z,-0.20
2019-01-18T04:55:09.473Z,-0.20
2019-01-18T04:57:37.929Z,-0.30
2019-01-18T05:00:25.937Z,-0.40
2019-01-18T05:02:54.401Z,-0.50
2019-01-18T05:05:23.003Z,-0.50
2019-01-18T05:07:51.635Z,-0.40
2019-01-18T05:10:22.504Z,-0.20
2019-01-18T05:12:51.476Z,-0.10
2019-01-18T05:15:24.723Z,0.20
2019-01-18T05:17:53.309Z,0.40
2019-01-18T05:20:21.727Z,0.60
2019-01-18T05:22:50.320Z,0.80
2019-01-18T05:25:18.712Z,0.90
2019-01-18T05:27:47.287Z,1.00
2019-01-18T05:30:27.525Z,1.10
2019-01-18T05:32:55.973Z,1.00
2019-01-18T05:35:24.438Z,1.00
2019-01-18T05:37:53.020Z,0.90
2019-01-18T05:40:22.702Z,0.90
2019-01-18T05:42:51.382Z,1.00
2019-01-18T05:45:21.711Z,1.10
2019-01-18T05:47:50.381Z,1.20
2019-01-18T05:50:21.551Z,1.30
2019-01-18T05:52:50.166Z,1.30
2019-01-18T05:55:18.754Z,1.30
2019-01-18T05:57:47.239Z,1.30
2019-01-18T06:00:25.832Z,1.30
2019-01-18T06:02:54.428Z,1.30
2019-01-18T06:05:23.209Z,1.30
2019-01-18T06:07:51.751Z,1.30
2019-01-18T06:10:20.191Z,1.30
2019-01-18T06:12:48.625Z,1.30
2019-01-18T06:15:17.221Z,1.30
2019-01-18T06:17:45.687Z,1.30
2019-01-18T06:20:15.954Z,1.40
2019-01-18T06:22:44.540Z,1.40
2019-01-18T06:25:13.078Z,1.30
2019-01-18T06:27:41.546Z,1.20
2019-01-18T06:30:21.262Z,1.10
2019-01-18T06:32:49.926Z,1.20
2019-01-18T06:35:18.433Z,1.30
2019-01-18T06:37:47.330Z,1.40
2019-01-18T06:40:18.239Z,1.40
2019-01-18T06:42:46.921Z,1.50
2019-01-18T06:45:18.114Z,1.50
2019-01-18T06:47:46.696Z,1.50
2019-01-18T06:50:17.276Z,1.50
2019-01-18T06:52:47.150Z,1.60
2019-01-18T06:55:15.580Z,1.60
2019-01-18T06:57:44.030Z,1.60
2019-01-18T07:00:19.100Z,1.70
2019-01-18T07:02:47.656Z,1.60
2019-01-18T07:05:16.157Z,1.70
2019-01-18T07:07:44.873Z,1.70
2019-01-18T07:10:20.627Z,1.70
2019-01-18T07:12:46.795Z,1.70
2019-01-18T07:15:15.347Z,1.70
2019-01-18T07:17:43.753Z,1.80
2019-01-18T07:20:14.162Z,1.90
2019-01-18T07:22:42.655Z,2.00
2019-01-18T07:25:16.207Z,2.00
2019-01-18T07:27:44.720Z,2.10
2019-01-18T07:30:18.957Z,2.20
2019-01-18T07:32:47.425Z,2.20
2019-01-18T07:35:16.789Z,2.30
2019-01-18T07:37:45.298Z,2.40
2019-01-18T07:40:13.869Z,2.40
2019-01-18T07:42:42.305Z,2.40
2019-01-18T07:45:22.644Z,2.50
2019-01-18T07:47:51.247Z,2.50
2019-01-18T07:50:20.318Z,2.60
2019-01-18T07:52:49.148Z,2.60
2019-01-18T07:55:17.675Z,2.70
2019-01-18T07:57:46.217Z,2.70
2019-01-18T08:00:25.754Z,2.80
2019-01-18T08:02:54.272Z,2.80
2019-01-18T08:05:24.457Z,2.90
2019-01-18T08:07:53.540Z,2.90
2019-01-18T08:10:23.599Z,2.90
2019-01-18T08:12:52.291Z,2.90
2019-01-18T08:15:22.989Z,2.90
2019-01-18T08:17:51.758Z,2.80
2019-01-18T08:20:25.153Z,2.80
2019-01-18T08:22:54.376Z,2.70
2019-01-18T08:25:22.920Z,2.80
2019-01-18T08:27:51.493Z,2.80
2019-01-18T08:30:24.740Z,2.80
2019-01-18T08:32:53.296Z,2.70
2019-01-18T08:35:23.007Z,2.60
2019-01-18T08:37:51.570Z,2.50
2019-01-18T08:40:28.955Z,2.50
2019-01-18T08:42:57.799Z,2.40
2019-01-18T08:45:29.567Z,2.30
2019-01-18T08:47:58.260Z,2.30
2019-01-18T08:50:26.738Z,2.20
2019-01-18T08:52:55.366Z,2.20
2019-01-18T08:55:23.861Z,2.10
2019-01-18T08:57:52.482Z,1.90
2019-01-18T09:00:26.538Z,1.80
2019-01-18T09:02:55.025Z,1.70
2019-01-18T09:05:25.575Z,1.60
2019-01-18T09:07:55.281Z,1.60
2019-01-18T09:10:26.765Z,1.50
2019-01-18T09:12:55.255Z,1.60
2019-01-18T09:15:23.776Z,1.50
2019-01-18T09:17:52.353Z,1.40
2019-01-18T09:20:25.031Z,1.40
2019-01-18T09:22:53.491Z,1.40
2019-01-18T09:25:21.998Z,1.40
2019-01-18T09:27:50.693Z,1.40
2019-01-18T09:30:24.840Z,1.30
2019-01-18T09:32:53.723Z,1.30
2019-01-18T09:35:24.253Z,1.40
2019-01-18T09:37:53.665Z,1.30
2019-01-18T09:40:31.002Z,1.30
2019-01-18T09:42:59.619Z,1.30
2019-01-18T09:45:28.262Z,1.30
2019-01-18T09:47:56.714Z,1.30
2019-01-18T09:50:30.584Z,1.40
2019-01-18T09:52:59.824Z,1.40
2019-01-18T09:55:28.486Z,1.50
2019-01-18T09:57:57.095Z,1.50
2019-01-18T10:00:36.542Z,1.50
2019-01-18T10:03:08.081Z,1.50
2019-01-18T10:05:37.145Z,1.50
2019-01-18T10:08:05.998Z,1.60
2019-01-18T10:10:34.497Z,1.50
2019-01-18T10:13:03.328Z,1.50
2019-01-18T10:15:37.606Z,1.60
2019-01-18T10:18:06.329Z,1.60
2019-01-18T10:20:34.866Z,1.60
2019-01-18T10:23:03.454Z,1.50
2019-01-18T10:25:32.256Z,1.60
2019-01-18T10:28:01.060Z,1.50
2019-01-18T10:30:29.564Z,1.50
2019-01-18T10:32:58.104Z,1.50
2019-01-18T10:35:27.689Z,1.50
2019-01-18T10:37:56.254Z,1.50
2019-01-18T10:40:24.804Z,1.60
2019-01-18T10:42:53.539Z,1.60
2019-01-18T10:45:22.252Z,1.50
2019-01-18T10:47:51.353Z,1.60
2019-01-18T10:50:25.637Z,1.60
2019-01-18T10:52:54.137Z,1.60
2019-01-18T10:55:23.025Z,1.50
2019-01-18T10:57:51.909Z,1.50
2019-01-18T11:00:26.318Z,1.40
2019-01-18T11:02:54.903Z,1.40
2019-01-18T11:05:23.595Z,1.30
2019-01-18T11:07:52.092Z,1.40
2019-01-18T11:10:20.708Z,1.30
2019-01-18T11:12:49.365Z,1.20
2019-01-18T11:15:23.285Z,1.20
2019-01-18T11:17:51.708Z,1.10
2019-01-18T11:20:26.136Z,1.10
2019-01-18T11:22:56.361Z,1.10
2019-01-18T11:25:31.559Z,1.10
2019-01-18T11:27:55.305Z,1.20
2019-01-18T11:30:23.986Z,1.20
2019-01-18T11:32:52.669Z,1.40
2019-01-18T11:35:21.110Z,1.50
2019-01-18T11:37:49.866Z,1.70
2019-01-18T11:40:21.115Z,1.80
2019-01-18T11:42:49.597Z,2.00
2019-01-18T11:45:18.317Z,2.10
2019-01-18T11:47:46.786Z,2.10
2019-01-18T11:50:20.337Z,2.00
2019-01-18T11:52:48.978Z,2.00
2019-01-18T11:55:17.483Z,1.90
2019-01-18T11:57:46.009Z,1.90
2019-01-18T12:00:20.127Z,1.80
2019-01-18T12:02:48.691Z,1.80
2019-01-18T12:05:17.247Z,1.80
2019-01-18T12:07:45.784Z,1.70
2019-01-18T12:10:17.046Z,1.80
2019-01-18T12:12:45.579Z,1.80
2019-01-18T12:15:14.261Z,1.80
2019-01-18T12:17:42.767Z,1.90
2019-01-18T12:20:17.849Z,1.90
2019-01-18T12:22:46.319Z,2.00
2019-01-18T12:25:14.906Z,2.10
2019-01-18T12:27:43.462Z,2.20
2019-01-18T12:30:15.211Z,2.20
2019-01-18T12:32:43.701Z,2.20
2019-01-18T12:35:12.413Z,2.20
2019-01-18T12:37:41.010Z,2.20
2019-01-18T12:40:09.646Z,2.30
2019-01-18T12:42:38.211Z,2.40
2019-01-18T12:45:17.887Z,2.40
2019-01-18T12:47:47.461Z,2.20
2019-01-18T12:50:31.078Z,2.10
2019-01-18T12:52:59.674Z,2.00
2019-01-18T12:55:28.212Z,1.90
2019-01-18T12:57:56.771Z,1.80
2019-01-18T13:00:27.202Z,1.70
2019-01-18T13:02:56.229Z,1.60
2019-01-18T13:05:33.544Z,1.60
2019-01-18T13:08:02.106Z,1.60
2019-01-18T13:10:30.606Z,1.50
2019-01-18T13:12:59.520Z,1.50
2019-01-18T13:15:37.232Z,1.60
2019-01-18T13:18:05.815Z,1.70
2019-01-18T13:20:34.377Z,1.70
2019-01-18T13:23:02.954Z,1.60
2019-01-18T13:25:31.477Z,1.60
2019-01-18T13:28:00.075Z,1.60
2019-01-18T13:30:28.591Z,1.60
2019-01-18T13:32:57.239Z,1.50
2019-01-18T13:35:25.679Z,1.50
2019-01-18T13:37:54.226Z,1.50
2019-01-18T13:40:23.385Z,1.50
2019-01-18T13:42:51.960Z,1.50
2019-01-18T13:45:24.264Z,1.60
2019-01-18T13:47:50.668Z,1.60
2019-01-18T13:50:20.295Z,1.70
2019-01-18T13:52:48.875Z,1.70
2019-01-18T13:55:25.980Z,1.70
2019-01-18T13:57:54.536Z,1.70
2019-01-18T14:00:23.336Z,1.70
2019-01-18T14:02:51.911Z,1.80
2019-01-18T14:05:20.348Z,1.80
2019-01-18T14:07:53.252Z,1.80
2019-01-18T14:10:31.010Z,1.70
2019-01-18T14:12:59.630Z,1.60
2019-01-18T14:15:28.146Z,1.50
2019-01-18T14:17:57.119Z,1.30
2019-01-18T14:20:27.261Z,1.20
2019-01-18T14:22:55.855Z,1.10
2019-01-18T14:25:24.579Z,1.10
2019-01-18T14:27:53.104Z,1.00
2019-01-18T14:30:26.649Z,0.90
2019-01-18T14:32:56.024Z,0.80
2019-01-18T14:35:24.781Z,0.80
2019-01-18T14:37:53.496Z,0.70
2019-01-18T14:40:22.333Z,0.60
2019-01-18T14:42:52.904Z,0.50
2019-01-18T14:45:42.262Z,0.50
2019-01-18T14:48:10.974Z,0.40
2019-01-18T14:50:39.498Z,0.30
2019-01-18T14:53:08.020Z,0.20
2019-01-18T14:55:36.596Z,0.10
2019-01-18T14:58:07.410Z,0.00
2019-01-18T15:00:37.636Z,-0.20
2019-01-18T15:03:06.412Z,-0.30
2019-01-18T15:05:34.955Z,-0.40
2019-01-18T15:08:03.757Z,-0.40
2019-01-18T15:10:32.415Z,-0.50
2019-01-18T15:13:06.628Z,-0.50
2019-01-18T15:15:35.369Z,-0.60
2019-01-18T15:18:03.862Z,-0.60
2019-01-18T15:20:33.066Z,-0.70
2019-01-18T15:23:01.845Z,-0.70
2019-01-18T15:25:30.500Z,-0.80
2019-01-18T15:28:00.977Z,-0.80
2019-01-18T15:30:35.788Z,-0.80
2019-01-18T15:33:09.054Z,-0.90
2019-01-18T15:35:36.632Z,-1.00
2019-01-18T15:38:06.452Z,-1.10
2019-01-18T15:40:37.623Z,-1.10
2019-01-18T15:43:06.660Z,-1.10
2019-01-18T15:45:35.325Z,-1.20
2019-01-18T15:48:03.917Z,-1.20
2019-01-18T15:50:35.317Z,-1.30
2019-01-18T15:53:04.870Z,-1.40
2019-01-18T15:55:33.499Z,-1.40
2019-01-18T15:58:02.022Z,-1.50
2019-01-18T16:00:33.180Z,-1.60
2019-01-18T16:03:01.872Z,-1.70
2019-01-18T16:05:30.359Z,-1.70
2019-01-18T16:07:59.116Z,-1.70
2019-01-18T16:10:27.601Z,-1.70
2019-01-18T16:12:56.520Z,-1.80
2019-01-18T16:15:37.762Z,-1.80
2019-01-18T16:18:09.958Z,-1.80
2019-01-18T16:20:38.590Z,-1.90
2019-01-18T16:23:07.251Z,-1.90
2019-01-18T16:25:35.781Z,-2.00
2019-01-18T16:28:04.495Z,-2.00
2019-01-18T16:30:33.098Z,-2.10
2019-01-18T16:33:01.744Z,-2.10
2019-01-18T16:35:30.174Z,-2.20
2019-01-18T16:37:58.912Z,-2.20
2019-01-18T16:40:30.228Z,-2.30
2019-01-18T16:43:17.229Z,-2.30
2019-01-18T16:45:45.897Z,-2.40
2019-01-18T16:48:14.830Z,-2.50
2019-01-18T16:50:43.469Z,-2.50
2019-01-18T16:53:12.096Z,-2.60
2019-01-18T16:55:41.150Z,-2.60
2019-01-18T16:58:09.793Z,-2.70
2019-01-18T17:00:44.653Z,-2.70
2019-01-18T17:03:13.362Z,-2.80
2019-01-18T17:05:42.024Z,-2.80
2019-01-18T17:08:11.523Z,-2.80
2019-01-18T17:10:40.134Z,-2.90
2019-01-18T17:13:08.832Z,-2.90
2019-01-18T17:15:37.483Z,-2.90
2019-01-18T17:18:06.054Z,-2.80
2019-01-18T17:20:43.531Z,-2.90
2019-01-18T17:23:12.261Z,-2.90
2019-01-18T17:25:40.980Z,-2.90
2019-01-18T17:28:09.642Z,-3.00
2019-01-18T17:30:38.163Z,-3.00
2019-01-18T17:33:06.791Z,-3.00
2019-01-18T17:35:41.716Z,-3.00
2019-01-18T17:38:25.415Z,-3.10
2019-01-18T17:40:57.268Z,-3.10
2019-01-18T17:43:53.000Z,-3.20
2019-01-18T17:46:30.475Z,-3.20
2019-01-18T17:49:23.456Z,-3.30
2019-01-18T17:52:06.646Z,-3.30
2019-01-18T17:54:40.913Z,-3.30
2019-01-18T17:57:18.693Z,-3.40
2019-01-18T18:00:09.483Z,-3.40
2019-01-18T18:02:56.128Z,-3.40
2019-01-18T18:05:37.005Z,-3.50
2019-01-18T18:08:31.519Z,-3.50
2019-01-18T18:11:20.216Z,-3.60
2019-01-18T18:13:52.440Z,-3.60
2019-01-18T18:16:41.028Z,-3.60
2019-01-18T18:19:12.864Z,-3.70
2019-01-18T18:22:04.501Z,-3.70
2019-01-18T18:24:36.377Z,-3.70
2019-01-18T18:27:23.620Z,-3.80
2019-01-18T18:29:58.123Z,-3.80
2019-01-18T18:32:35.666Z,-3.80
2019-01-18T18:35:13.423Z,-3.80
2019-01-18T18:38:10.917Z,-3.80
2019-01-18T18:40:42.652Z,-3.80
2019-01-18T18:43:34.119Z,-3.80
2019-01-18T18:46:11.885Z,-3.90
2019-01-18T18:48:43.760Z,-3.90
2019-01-18T18:51:39.776Z,-3.90
2019-01-18T18:54:14.408Z,-4.00
2019-01-18T18:57:16.766Z,-4.00
2019-01-18T19:00:10.737Z,-4.00
2019-01-18T19:02:43.731Z,-4.00
2019-01-18T19:05:44.239Z,-4.00
2019-01-18T19:08:27.776Z,-4.00
2019-01-18T19:11:02.405Z,-4.00
2019-01-18T19:13:48.992Z,-4.00
2019-01-18T19:16:29.102Z,-4.00
2019-01-18T19:19:00.916Z,-4.10
2019-01-18T19:22:01.637Z,-4.10
2019-01-18T19:24:48.331Z,-4.10
2019-01-18T19:27:37.188Z,-4.00
2019-01-18T19:30:26.036Z,-4.10
2019-01-18T19:32:57.797Z,-4.10
2019-01-18T19:35:29.538Z,-4.00
2019-01-18T19:38:06.950Z,-4.00
2019-01-18T19:40:44.328Z,-4.00
2019-01-18T19:43:18.733Z,-3.90
2019-01-18T19:46:02.572Z,-3.80
2019-01-18T19:48:46.320Z,-3.70
2019-01-18T19:51:24.446Z,-3.80
2019-01-18T19:54:11.220Z,-3.70
2019-01-18T19:56:48.575Z,-3.70
2019-01-18T19:59:26.646Z,-3.60
2019-01-18T20:02:04.025Z,-3.60
2019-01-18T20:04:54.418Z,-3.60
2019-01-18T20:07:32.006Z,-3.50
2019-01-18T20:10:29.742Z,-3.40
2019-01-18T20:13:07.265Z,-3.30
2019-01-18T20:15:54.141Z,-3.30
2019-01-18T20:18:49.824Z,-3.20
2019-01-18T20:21:24.518Z,-3.20
2019-01-18T20:24:01.869Z,-3.20
2019-01-18T20:26:51.631Z,-3.20
2019-01-18T20:29:38.765Z,-3.10
2019-01-18T20:32:22.639Z,-3.10
2019-01-18T20:35:19.404Z,-3.00
2019-01-18T20:37:57.538Z,-3.00
2019-01-18T20:40:35.691Z,-2.90
2019-01-18T20:43:10.404Z,-2.90
2019-01-18T20:45:57.212Z,-2.90
2019-01-18T20:48:47.270Z,-2.90
2019-01-18T20:51:37.299Z,-2.90
2019-01-18T20:54:15.201Z,-2.90
2019-01-18T20:57:06.918Z,-3.00
2019-01-18T20:59:53.859Z,-3.00
2019-01-18T21:02:37.539Z,-3.00
2019-01-18T21:05:18.197Z,-2.90
2019-01-18T21:07:53.190Z,-3.00
2019-01-18T21:10:31.459Z,-3.10
2019-01-18T21:13:12.488Z,-3.10
2019-01-18T21:16:05.096Z,-3.20
2019-01-18T21:19:01.065Z,-3.20
2019-01-18T21:21:35.442Z,-3.20
2019-01-18T21:24:07.164Z,-3.20
2019-01-18T21:26:44.663Z,-3.10
2019-01-18T21:29:28.385Z,-3.10
2019-01-18T21:32:09.125Z,-3.10
2019-01-18T21:35:00.482Z,-3.10
2019-01-18T21:37:38.323Z,-3.10
2019-01-18T21:40:15.869Z,-3.10
2019-01-18T21:43:13.161Z,-3.00
2019-01-18T21:46:00.145Z,-3.00
2019-01-18T21:48:54.829Z,-3.00
2019-01-18T21:51:42.946Z,-3.00
2019-01-18T21:54:29.963Z,-3.10
2019-01-18T21:57:13.733Z,-3.20
2019-01-18T21:59:48.534Z,-3.30
2019-01-18T22:02:32.198Z,-3.40
2019-01-18T22:05:18.917Z,-3.50
2019-01-18T22:07:56.070Z,-3.70
2019-01-18T22:10:33.544Z,-3.80
2019-01-18T22:13:20.483Z,-3.70
2019-01-18T22:15:58.186Z,-3.80
2019-01-18T22:18:35.670Z,-3.80
2019-01-18T22:21:10.431Z,-3.80
2019-01-18T22:23:47.725Z,-3.90
2019-01-18T22:26:25.330Z,-3.90
2019-01-18T22:29:16.471Z,-3.80
2019-01-18T22:32:09.622Z,-3.80
2019-01-18T22:34:47.553Z,-3.90
2019-01-18T22:37:17.478Z,-3.90
2019-01-18T22:40:05.739Z,-3.90
2019-01-18T22:42:43.517Z,-4.00
2019-01-18T22:45:33.352Z,-4.00
2019-01-18T22:48:11.624Z,-4.10
2019-01-18T22:50:55.645Z,-4.10
2019-01-18T22:53:51.634Z,-4.10
2019-01-18T22:56:41.218Z,-4.10
2019-01-18T22:59:18.726Z,-4.10
2019-01-18T23:02:22.406Z,-4.10
2019-01-18T23:05:14.834Z,-4.10
2019-01-18T23:07:56.105Z,-4.10
2019-01-18T23:10:47.971Z,-4.10
2019-01-18T23:13:23.676Z,-4.10
2019-01-18T23:16:20.749Z,-4.00
2019-01-18T23:18:53.685Z,-4.00
2019-01-18T23:21:35.550Z,-3.90
2019-01-18T23:24:10.104Z,-3.80
2019-01-18T23:26:54.080Z,-3.80
2019-01-18T23:29:29.830Z,-3.80
2019-01-18T23:32:27.202Z,-3.70
2019-01-18T23:35:04.818Z,-3.70
2019-01-18T23:37:39.318Z,-3.70
2019-01-18T23:40:30.005Z,-3.70
2019-01-18T23:43:30.574Z,-3.70
2019-01-18T23:46:08.172Z,-3.70
2019-01-18T23:48:57.845Z,-3.60
2019-01-18T23:51:46.326Z,-3.60
2019-01-18T23:54:27.660Z,-3.60
2019-01-18T23:57:20.698Z,-3.60
